sensor_id;sensor_type;location;lat;lon;timestamp;temperature;humidity
2757;DHT22;1386;50.862;6.494;2023-03-20T03:15:58;8.50;99.90
2757;DHT22;1386;50.862;6.494;2023-03-20T03:18:28;8.50;99.90
2757;DHT22;1386;50.862;6.494;2023-03-20T03:20:58;8.40;99.90
2757;DHT22;1386;50.862;6.494;2023-03-20T03:23:28;8.40;99.90
2757;DHT22;1386;50.862;6.494;2023-03-20T03:25:58;8.40;99.90
2757;DHT22;1386;50.862;6.494;2023-03-20T03:28:30;8.40;99.90
2757;DHT22;1386;50.862;6.494;2023-03-20T03:31:03;8.40;99.90
2757;DHT22;1386;50.862;6.494;2023-03-20T03:33:32;8.30;99.90
2757;DHT22;1386;50.862;6.494;2023-03-20T03:36:07;8.30;99.90
2757;DHT22;1386;50.862;6.494;2023-03-20T03:38:41;8.30;99.90
2757;DHT22;1386;50.862;6.494;2023-03-20T03:41:18;8.30;99.90
2757;DHT22;1386;50.862;6.494;2023-03-20T03:43:51;8.20;99.90
2757;DHT22;1386;50.862;6.494;2023-03-20T03:46:26;8.20;99.90
2757;DHT22;1386;50.862;6.494;2023-03-20T03:48:56;8.20;99.90
2757;DHT22;1386;50.862;6.494;2023-03-20T03:51:26;8.10;99.90
2757;DHT22;1386;50.862;6.494;2023-03-20T03:53:58;8.00;99.90
2757;DHT22;1386;50.862;6.494;2023-03-20T03:56:29;8.10;99.90
2757;DHT22;1386;50.862;6.494;2023-03-20T03:58:59;8.10;99.90
2757;DHT22;1386;50.862;6.494;2023-03-20T04:01:30;8.10;99.90
2757;DHT22;1386;50.862;6.494;2023-03-20T04:04:02;8.10;99.90
2757;DHT22;1386;50.862;6.494;2023-03-20T04:06:31;8.10;99.90
2757;DHT22;1386;50.862;6.494;2023-03-20T04:08:58;8.00;99.90
2757;DHT22;1386;50.862;6.494;2023-03-20T04:11:25;8.00;99.90
2757;DHT22;1386;50.862;6.494;2023-03-20T04:13:53;8.00;99.90
2757;DHT22;1386;50.862;6.494;2023-03-20T04:16:22;8.00;99.90
2757;DHT22;1386;50.862;6.494;2023-03-20T04:18:52;8.00;99.90
2757;DHT22;1386;50.862;6.494;2023-03-20T04:21:20;8.00;99.90
2757;DHT22;1386;50.862;6.494;2023-03-20T04:23:47;8.00;99.90
2757;DHT22;1386;50.862;6.494;2023-03-20T04:26:14;7.90;99.90
2757;DHT22;1386;50.862;6.494;2023-03-20T04:28:41;7.90;99.90
2757;DHT22;1386;50.862;6.494;2023-03-20T04:31:08;7.90;99.90
2757;DHT22;1386;50.862;6.494;2023-03-20T04:33:34;7.90;99.90
2757;DHT22;1386;50.862;6.494;2023-03-20T04:36:04;7.80;99.90
2757;DHT22;1386;50.862;6.494;2023-03-20T04:38:31;7.80;99.90
2757;DHT22;1386;50.862;6.494;2023-03-20T04:40:58;7.80;99.90
2757;DHT22;1386;50.862;6.494;2023-03-20T04:43:25;7.70;99.90
2757;DHT22;1386;50.862;6.494;2023-03-20T04:45:52;7.70;99.90
2757;DHT22;1386;50.862;6.494;2023-03-20T04:48:19;7.60;99.90
2757;DHT22;1386;50.862;6.494;2023-03-20T04:50:46;7.60;99.90
2757;DHT22;1386;50.862;6.494;2023-03-20T04:53:16;7.50;99.90
2757;DHT22;1386;50.862;6.494;2023-03-20T04:55:44;7.50;99.90
2757;DHT22;1386;50.862;6.494;2023-03-20T04:58:12;7.50;99.90
2757;DHT22;1386;50.862;6.494;2023-03-20T05:00:39;7.40;99.90
2757;DHT22;1386;50.862;6.494;2023-03-20T05:03:06;7.40;99.90
2757;DHT22;1386;50.862;6.494;2023-03-20T05:05:33;7.50;99.90
2757;DHT22;1386;50.862;6.494;2023-03-20T05:08:03;7.40;99.90
2757;DHT22;1386;50.862;6.494;2023-03-20T05:10:31;7.50;99.90
2757;DHT22;1386;50.862;6.494;2023-03-20T05:12:58;7.40;99.90
2757;DHT22;1386;50.862;6.494;2023-03-20T05:15:25;7.40;99.90
2757;DHT22;1386;50.862;6.494;2023-03-20T05:17:52;7.40;99.90
2757;DHT22;1386;50.862;6.494;2023-03-20T05:20:19;7.40;99.90
2757;DHT22;1386;50.862;6.494;2023-03-20T05:22:48;7.40;99.90
2757;DHT22;1386;50.862;6.494;2023-03-20T05:25:15;7.30;99.90
2757;DHT22;1386;50.862;6.494;2023-03-20T05:27:45;7.40;99.90
2757;DHT22;1386;50.862;6.494;2023-03-20T05:30:13;7.40;99.90
2757;DHT22;1386;50.862;6.494;2023-03-20T05:32:40;7.40;99.90
2757;DHT22;1386;50.862;6.494;2023-03-20T05:35:08;7.40;99.90
2757;DHT22;1386;50.862;6.494;2023-03-20T05:37:36;7.40;99.90
2757;DHT22;1386;50.862;6.494;2023-03-20T05:40:04;7.40;99.90
2757;DHT22;1386;50.862;6.494;2023-03-20T05:42:31;7.40;99.90
2757;DHT22;1386;50.862;6.494;2023-03-20T05:44:59;7.40;99.90
2757;DHT22;1386;50.862;6.494;2023-03-20T05:47:26;7.30;99.90
2757;DHT22;1386;50.862;6.494;2023-03-20T05:49:53;7.30;99.90
2757;DHT22;1386;50.862;6.494;2023-03-20T05:52:20;7.30;99.90
2757;DHT22;1386;50.862;6.494;2023-03-20T05:54:46;7.30;99.90
2757;DHT22;1386;50.862;6.494;2023-03-20T05:57:13;7.30;99.90
2757;DHT22;1386;50.862;6.494;2023-03-20T05:59:41;7.40;99.90
2757;DHT22;1386;50.862;6.494;2023-03-20T06:02:16;7.40;99.90
2757;DHT22;1386;50.862;6.494;2023-03-20T06:04:43;7.40;99.90
2757;DHT22;1386;50.862;6.494;2023-03-20T06:07:10;7.40;99.90
2757;DHT22;1386;50.862;6.494;2023-03-20T06:09:37;7.40;99.90
2757;DHT22;1386;50.862;6.494;2023-03-20T06:12:04;7.40;99.90
2757;DHT22;1386;50.862;6.494;2023-03-20T06:14:31;7.50;99.90
2757;DHT22;1386;50.862;6.494;2023-03-20T06:16:58;7.50;99.90
2757;DHT22;1386;50.862;6.494;2023-03-20T06:19:26;7.50;99.90
2757;DHT22;1386;50.862;6.494;2023-03-20T06:21:53;7.40;99.90
2757;DHT22;1386;50.862;6.494;2023-03-20T06:24:20;7.50;99.90
2757;DHT22;1386;50.862;6.494;2023-03-20T06:26:47;7.50;99.90
2757;DHT22;1386;50.862;6.494;2023-03-20T06:29:14;7.50;99.90
2757;DHT22;1386;50.862;6.494;2023-03-20T06:31:41;7.50;99.90
2757;DHT22;1386;50.862;6.494;2023-03-20T06:34:08;7.50;99.90
2757;DHT22;1386;50.862;6.494;2023-03-20T06:36:36;7.50;99.90
2757;DHT22;1386;50.862;6.494;2023-03-20T06:39:03;7.50;99.90
2757;DHT22;1386;50.862;6.494;2023-03-20T06:41:30;7.60;99.90
2757;DHT22;1386;50.862;6.494;2023-03-20T06:43:57;7.60;99.90
2757;DHT22;1386;50.862;6.494;2023-03-20T06:46:24;7.60;99.90
2757;DHT22;1386;50.862;6.494;2023-03-20T06:48:53;7.60;99.90
2757;DHT22;1386;50.862;6.494;2023-03-20T06:51:21;7.60;99.90
2757;DHT22;1386;50.862;6.494;2023-03-20T06:53:49;7.60;99.90
2757;DHT22;1386;50.862;6.494;2023-03-20T06:56:16;7.70;99.90
2757;DHT22;1386;50.862;6.494;2023-03-20T06:58:43;7.70;99.90
2757;DHT22;1386;50.862;6.494;2023-03-20T07:01:11;7.70;99.90
2757;DHT22;1386;50.862;6.494;2023-03-20T07:03:38;7.80;99.90
2757;DHT22;1386;50.862;6.494;2023-03-20T07:06:06;7.80;99.90
2757;DHT22;1386;50.862;6.494;2023-03-20T07:08:33;7.80;99.90
2757;DHT22;1386;50.862;6.494;2023-03-20T07:11:02;7.90;99.90
2757;DHT22;1386;50.862;6.494;2023-03-20T07:13:29;7.90;99.90
2757;DHT22;1386;50.862;6.494;2023-03-20T07:15:57;8.00;99.90
2757;DHT22;1386;50.862;6.494;2023-03-20T07:18:25;8.00;99.90
2757;DHT22;1386;50.862;6.494;2023-03-20T07:20:53;8.10;99.90
2757;DHT22;1386;50.862;6.494;2023-03-20T07:23:23;8.00;99.90
2757;DHT22;1386;50.862;6.494;2023-03-20T07:25:50;8.10;99.90
2757;DHT22;1386;50.862;6.494;2023-03-20T07:28:18;8.10;99.90
2757;DHT22;1386;50.862;6.494;2023-03-20T07:30:45;8.10;99.90
2757;DHT22;1386;50.862;6.494;2023-03-20T07:33:12;8.10;99.90
2757;DHT22;1386;50.862;6.494;2023-03-20T07:35:39;8.20;99.90
2757;DHT22;1386;50.862;6.494;2023-03-20T07:38:06;8.20;99.90
2757;DHT22;1386;50.862;6.494;2023-03-20T07:40:33;8.20;99.90
2757;DHT22;1386;50.862;6.494;2023-03-20T07:42:59;8.20;99.90
2757;DHT22;1386;50.862;6.494;2023-03-20T07:45:28;8.30;99.90
2757;DHT22;1386;50.862;6.494;2023-03-20T07:47:55;8.30;99.90
2757;DHT22;1386;50.862;6.494;2023-03-20T07:50:22;8.30;99.90
2757;DHT22;1386;50.862;6.494;2023-03-20T07:52:49;8.40;99.90
2757;DHT22;1386;50.862;6.494;2023-03-20T07:55:17;8.40;99.90
2757;DHT22;1386;50.862;6.494;2023-03-20T07:57:43;8.40;99.90
2757;DHT22;1386;50.862;6.494;2023-03-20T08:00:11;8.40;99.90
2757;DHT22;1386;50.862;6.494;2023-03-20T08:02:41;8.40;99.90
2757;DHT22;1386;50.862;6.494;2023-03-20T08:05:08;8.50;99.90
2757;DHT22;1386;50.862;6.494;2023-03-20T08:07:35;8.50;99.90
2757;DHT22;1386;50.862;6.494;2023-03-20T08:10:02;8.50;99.90
2757;DHT22;1386;50.862;6.494;2023-03-20T08:12:29;8.50;99.90
2757;DHT22;1386;50.862;6.494;2023-03-20T08:14:56;8.50;99.90
2757;DHT22;1386;50.862;6.494;2023-03-20T08:17:23;8.50;99.90
2757;DHT22;1386;50.862;6.494;2023-03-20T08:19:51;8.60;99.90
2757;DHT22;1386;50.862;6.494;2023-03-20T08:22:18;8.60;99.90
2757;DHT22;1386;50.862;6.494;2023-03-20T08:24:45;8.60;99.90
2757;DHT22;1386;50.862;6.494;2023-03-20T08:27:12;8.60;99.90
2757;DHT22;1386;50.862;6.494;2023-03-20T08:29:38;8.60;99.90
2757;DHT22;1386;50.862;6.494;2023-03-20T08:32:05;8.60;99.90
2757;DHT22;1386;50.862;6.494;2023-03-20T08:34:32;8.70;99.90
2757;DHT22;1386;50.862;6.494;2023-03-20T08:37:01;8.70;99.90
2757;DHT22;1386;50.862;6.494;2023-03-20T08:39:28;8.80;99.90
2757;DHT22;1386;50.862;6.494;2023-03-20T08:41:55;8.80;99.90
2757;DHT22;1386;50.862;6.494;2023-03-20T08:44:22;8.80;99.90
2757;DHT22;1386;50.862;6.494;2023-03-20T08:46:51;8.90;99.90
2757;DHT22;1386;50.862;6.494;2023-03-20T08:49:19;9.00;99.90
2757;DHT22;1386;50.862;6.494;2023-03-20T08:51:46;9.10;99.90
2757;DHT22;1386;50.862;6.494;2023-03-20T08:54:14;9.20;99.90
2757;DHT22;1386;50.862;6.494;2023-03-20T08:56:43;9.30;99.90
2757;DHT22;1386;50.862;6.494;2023-03-20T08:59:10;9.50;99.90
2757;DHT22;1386;50.862;6.494;2023-03-20T09:05:08;9.60;99.90
2757;DHT22;1386;50.862;6.494;2023-03-20T09:08:03;9.60;99.90
2757;DHT22;1386;50.862;6.494;2023-03-20T09:10:35;9.70;99.90
2757;DHT22;1386;50.862;6.494;2023-03-20T10:44:33;9.50;99.90
2757;DHT22;1386;50.862;6.494;2023-03-20T10:47:07;9.50;99.90
2757;DHT22;1386;50.862;6.494;2023-03-20T10:50:04;9.50;99.90
2757;DHT22;1386;50.862;6.494;2023-03-20T10:52:54;9.50;99.90
2757;DHT22;1386;50.862;6.494;2023-03-20T10:59:03;9.50;99.90
2757;DHT22;1386;50.862;6.494;2023-03-20T11:22:32;9.50;99.90
2757;DHT22;1386;50.862;6.494;2023-03-20T11:25:01;9.50;99.90
2757;DHT22;1386;50.862;6.494;2023-03-20T11:27:31;9.60;99.90
2757;DHT22;1386;50.862;6.494;2023-03-20T11:30:00;9.60;99.90
2757;DHT22;1386;50.862;6.494;2023-03-20T11:32:42;9.60;99.90
2757;DHT22;1386;50.862;6.494;2023-03-20T11:35:19;9.60;99.90
2757;DHT22;1386;50.862;6.494;2023-03-20T11:38:16;9.60;99.90
2757;DHT22;1386;50.862;6.494;2023-03-20T11:41:10;9.50;99.90
2757;DHT22;1386;50.862;6.494;2023-03-20T11:47:14;9.40;99.90
2757;DHT22;1386;50.862;6.494;2023-03-20T11:58:10;9.40;99.90
2757;DHT22;1386;50.862;6.494;2023-03-20T12:01:48;9.30;99.90
2757;DHT22;1386;50.862;6.494;2023-03-20T12:07:38;9.40;99.90
2757;DHT22;1386;50.862;6.494;2023-03-20T12:10:10;9.40;99.90
2757;DHT22;1386;50.862;6.494;2023-03-20T12:12:42;9.80;99.90
2757;DHT22;1386;50.862;6.494;2023-03-20T12:15:17;9.70;99.90
2757;DHT22;1386;50.862;6.494;2023-03-20T12:17:52;9.60;99.90
2757;DHT22;1386;50.862;6.494;2023-03-20T12:20:28;9.60;99.90
2757;DHT22;1386;50.862;6.494;2023-03-20T12:23:08;9.60;99.90
2757;DHT22;1386;50.862;6.494;2023-03-20T12:36:20;9.80;99.90
2757;DHT22;1386;50.862;6.494;2023-03-20T16:03:42;11.00;99.90
